createdAt,value
2022-08-10T00:00:59.658Z,52.17
2022-08-10T00:03:25.956Z,52.26
2022-08-10T00:05:54.814Z,53.05
2022-08-10T00:08:23.809Z,52.91
2022-08-10T00:10:50.582Z,52.90
2022-08-10T00:13:16.927Z,52.82
2022-08-10T00:15:44.384Z,53.01
2022-08-10T00:18:35.105Z,53.35
2022-08-10T00:21:01.770Z,52.66
2022-08-10T00:23:28.069Z,52.62
2022-08-10T00:25:54.358Z,52.27
2022-08-10T00:28:20.646Z,53.59
2022-08-10T00:30:46.931Z,53.04
2022-08-10T00:33:13.225Z,52.66
2022-08-10T00:35:42.611Z,52.80
2022-08-10T00:38:08.930Z,52.83
2022-08-10T00:40:38.036Z,52.95
2022-08-10T00:43:04.530Z,53.05
2022-08-10T00:45:31.075Z,53.67
2022-08-10T00:47:57.391Z,53.93
2022-08-10T00:50:23.704Z,54.56
2022-08-10T00:52:49.987Z,54.40
2022-08-10T00:55:16.315Z,54.62
2022-08-10T00:57:42.609Z,54.11
2022-08-10T01:00:09.530Z,53.77
2022-08-10T01:02:36.062Z,53.43
2022-08-10T01:05:03.012Z,53.48
2022-08-10T01:07:29.470Z,53.78
2022-08-10T01:09:57.351Z,53.49
2022-08-10T01:12:41.022Z,54.22
2022-08-10T01:15:08.269Z,53.97
2022-08-10T01:17:50.896Z,54.33
2022-08-10T01:20:30.532Z,54.50
2022-08-10T01:22:57.615Z,54.32
2022-08-10T01:25:23.912Z,54.83
2022-08-10T01:27:50.211Z,54.60
2022-08-10T01:30:18.194Z,54.97
2022-08-10T01:32:44.436Z,55.25
2022-08-10T01:35:10.742Z,54.94
2022-08-10T01:37:37.080Z,54.76
2022-08-10T01:40:03.417Z,55.18
2022-08-10T01:42:29.710Z,55.51
2022-08-10T01:44:56.024Z,55.32
2022-08-10T01:47:41.071Z,55.64
2022-08-10T01:50:07.970Z,55.84
2022-08-10T01:52:34.539Z,55.85
2022-08-10T01:55:00.982Z,55.95
2022-08-10T01:57:27.284Z,56.07
2022-08-10T01:59:58.742Z,56.12
2022-08-10T02:02:29.162Z,56.46
2022-08-10T02:04:55.457Z,56.68
2022-08-10T02:07:21.754Z,56.68
2022-08-10T02:09:48.046Z,56.45
2022-08-10T02:12:14.335Z,56.73
2022-08-10T02:14:40.636Z,56.80
2022-08-10T02:17:07.052Z,56.87
2022-08-10T02:19:33.372Z,57.45
2022-08-10T02:22:37.834Z,57.45
2022-08-10T02:24:45.950Z,57.50
2022-08-10T02:27:12.238Z,57.23
2022-08-10T02:29:38.544Z,57.11
2022-08-10T02:32:08.804Z,57.42
2022-08-10T02:34:36.025Z,57.46
2022-08-10T02:37:02.328Z,57.75
2022-08-10T02:39:37.358Z,57.67
2022-08-10T02:45:03.126Z,57.61
2022-08-10T02:45:29.419Z,57.83
2022-08-10T02:47:51.729Z,57.94
2022-08-10T02:50:18.854Z,58.14
2022-08-10T02:52:45.159Z,57.74
2022-08-10T02:55:18.240Z,58.24
2022-08-10T02:58:17.453Z,58.09
2022-08-10T03:00:35.512Z,57.66
2022-08-10T03:03:01.874Z,57.93
2022-08-10T03:05:28.244Z,58.09
2022-08-10T03:07:54.559Z,58.11
2022-08-10T03:10:20.852Z,58.72
2022-08-10T03:12:47.304Z,59.13
2022-08-10T03:15:15.562Z,59.10
2022-08-10T03:17:42.334Z,59.37
2022-08-10T03:20:37.247Z,59.15
2022-08-10T03:23:05.525Z,59.26
2022-08-10T03:25:31.807Z,59.08
2022-08-10T03:27:58.086Z,59.43
2022-08-10T03:30:32.689Z,59.67
2022-08-10T03:33:00.347Z,59.73
2022-08-10T03:35:26.644Z,59.48
2022-08-10T03:37:55.868Z,59.58
2022-08-10T03:40:25.881Z,60.39
2022-08-10T03:43:12.155Z,59.84
2022-08-10T03:45:54.147Z,59.91
2022-08-10T03:48:21.878Z,59.82
2022-08-10T03:50:51.966Z,59.58
2022-08-10T03:53:24.984Z,59.76
2022-08-10T03:56:27.306Z,60.12
2022-08-10T03:58:51.507Z,59.94
2022-08-10T04:01:17.872Z,59.47
2022-08-10T04:03:44.181Z,59.78
2022-08-10T04:06:10.467Z,59.30
2022-08-10T04:08:36.771Z,59.87
2022-08-10T04:11:03.133Z,59.68
2022-08-10T04:13:29.446Z,59.33
2022-08-10T04:15:55.743Z,59.47
2022-08-10T04:18:22.046Z,59.63
2022-08-10T04:20:48.341Z,59.39
2022-08-10T04:23:14.638Z,59.56
2022-08-10T04:25:40.952Z,59.50
2022-08-10T04:28:07.251Z,60.28
2022-08-10T04:30:33.575Z,60.33
2022-08-10T04:32:59.896Z,60.10
2022-08-10T04:35:26.185Z,60.40
2022-08-10T04:37:52.514Z,59.93
2022-08-10T04:40:29.709Z,60.01
2022-08-10T04:43:02.248Z,60.06
2022-08-10T04:45:48.750Z,59.88
2022-08-10T04:48:42.084Z,60.28
2022-08-10T04:51:02.456Z,59.80
2022-08-10T04:53:30.568Z,59.50
2022-08-10T04:55:56.867Z,60.32
2022-08-10T04:58:23.150Z,59.43
2022-08-10T05:00:49.468Z,59.54
2022-08-10T05:03:15.792Z,58.85
2022-08-10T05:05:42.089Z,59.40
2022-08-10T05:08:08.378Z,59.22
2022-08-10T05:10:34.732Z,58.80
2022-08-10T05:13:01.028Z,59.23
2022-08-10T05:15:27.427Z,58.98
2022-08-10T05:18:08.278Z,58.16
2022-08-10T05:20:36.295Z,57.75
2022-08-10T05:23:02.610Z,56.96
2022-08-10T05:25:28.925Z,56.84
2022-08-10T05:28:01.946Z,56.94
2022-08-10T05:30:32.045Z,56.09
2022-08-10T05:33:01.677Z,55.71
2022-08-10T05:35:34.665Z,56.69
2022-08-10T05:38:16.486Z,56.78
2022-08-10T05:40:47.262Z,56.70
2022-08-10T05:43:14.254Z,55.39
2022-08-10T05:46:19.635Z,56.31
2022-08-10T05:48:58.223Z,56.70
2022-08-10T05:51:16.032Z,57.24
2022-08-10T05:54:00.956Z,57.40
2022-08-10T05:56:56.491Z,57.37
2022-08-10T05:59:16.986Z,57.07
2022-08-10T06:02:32.867Z,56.24
2022-08-10T06:04:49.572Z,55.56
2022-08-10T06:07:18.892Z,56.08
2022-08-10T06:09:59.734Z,55.22
2022-08-10T06:12:30.178Z,55.45
2022-08-10T06:15:05.297Z,54.51
2022-08-10T06:17:32.406Z,54.45
2022-08-10T06:19:58.743Z,54.29
2022-08-10T06:22:25.061Z,53.85
2022-08-10T06:25:27.017Z,54.20
2022-08-10T06:27:37.623Z,53.21
2022-08-10T06:30:03.926Z,52.25
2022-08-10T06:32:46.740Z,51.83
2022-08-10T06:35:13.045Z,51.47
2022-08-10T06:37:39.346Z,51.15
2022-08-10T06:40:05.674Z,51.13
2022-08-10T06:42:32.622Z,50.23
2022-08-10T06:44:58.989Z,51.22
2022-08-10T06:47:25.290Z,50.40
2022-08-10T06:49:51.596Z,49.60
2022-08-10T06:52:18.594Z,49.76
2022-08-10T06:54:44.903Z,48.75
2022-08-10T06:57:18.774Z,48.73
2022-08-10T06:59:45.307Z,48.32
2022-08-10T07:02:11.809Z,50.42
2022-08-10T07:04:38.382Z,50.74
2022-08-10T07:07:04.673Z,49.86
2022-08-10T07:09:30.954Z,49.63
2022-08-10T07:11:57.261Z,48.20
2022-08-10T07:14:34.464Z,47.71
2022-08-10T07:17:00.712Z,47.03
2022-08-10T07:19:27.007Z,46.18
2022-08-10T07:21:53.343Z,46.95
2022-08-10T07:24:24.413Z,46.76
2022-08-10T07:26:50.694Z,46.66
2022-08-10T07:29:26.675Z,46.11
2022-08-10T07:32:03.318Z,45.16
2022-08-10T07:34:30.206Z,45.10
2022-08-10T07:36:56.499Z,44.52
2022-08-10T07:40:01.782Z,44.22
2022-08-10T07:42:09.088Z,45.20
2022-08-10T07:44:35.399Z,45.35
2022-08-10T07:47:01.756Z,45.03
2022-08-10T07:49:28.051Z,43.84
2022-08-10T07:51:56.170Z,43.89
2022-08-10T07:54:22.466Z,44.62
2022-08-10T07:56:50.037Z,43.14
2022-08-10T07:59:16.391Z,44.39
2022-08-10T08:01:42.794Z,43.01
2022-08-10T08:04:11.783Z,43.79
2022-08-10T08:06:38.506Z,42.42
2022-08-10T08:09:04.818Z,42.32
2022-08-10T08:11:31.114Z,41.68
2022-08-10T08:13:57.420Z,41.91
2022-08-10T08:16:23.721Z,41.30
2022-08-10T08:19:04.003Z,40.74
2022-08-10T08:24:06.967Z,40.26
2022-08-10T08:24:33.384Z,40.78
2022-08-10T08:27:00.098Z,41.28
2022-08-10T08:29:26.429Z,40.63
2022-08-10T08:32:01.085Z,40.32
2022-08-10T08:34:29.083Z,40.66
2022-08-10T08:36:59.396Z,39.67
2022-08-10T08:39:26.119Z,39.34
2022-08-10T08:41:52.455Z,39.03
2022-08-10T08:44:18.752Z,39.21
2022-08-10T08:46:45.034Z,38.36
2022-08-10T08:49:11.635Z,38.24
2022-08-10T08:52:17.276Z,38.58
2022-08-10T08:54:24.274Z,37.60
2022-08-10T08:56:50.776Z,37.47
2022-08-10T08:59:17.826Z,37.95
2022-08-10T09:01:44.212Z,38.44
2022-08-10T09:04:16.189Z,37.68
2022-08-10T09:06:48.094Z,38.12
2022-08-10T09:09:15.445Z,36.87
2022-08-10T09:11:45.592Z,36.85
2022-08-10T09:14:11.938Z,36.87
2022-08-10T09:16:39.459Z,35.99
2022-08-10T09:19:05.743Z,35.74
2022-08-10T09:21:32.038Z,35.43
2022-08-10T09:24:01.521Z,35.09
2022-08-10T09:26:30.685Z,35.19
2022-08-10T09:29:11.734Z,35.44
2022-08-10T09:31:39.660Z,34.98
2022-08-10T09:36:23.869Z,34.59
2022-08-10T09:36:52.374Z,33.44
2022-08-10T09:40:46.245Z,34.40
2022-08-10T09:42:05.857Z,33.32
2022-08-10T09:44:58.113Z,33.19
2022-08-10T09:47:58.698Z,33.04
2022-08-10T09:50:11.244Z,32.21
2022-08-10T09:52:37.697Z,33.29
2022-08-10T09:55:04.823Z,34.31
2022-08-10T09:57:43.944Z,34.52
2022-08-10T10:00:15.437Z,34.23
2022-08-10T10:02:43.397Z,33.95
2022-08-10T10:05:09.726Z,32.49
2022-08-10T10:07:36.117Z,32.27
2022-08-10T10:10:02.504Z,32.49
2022-08-10T10:12:28.796Z,32.75
2022-08-10T10:15:24.877Z,32.83
2022-08-10T10:17:52.069Z,33.11
2022-08-10T10:20:18.367Z,33.44
2022-08-10T10:22:44.700Z,33.15
2022-08-10T10:25:19.666Z,33.20
2022-08-10T10:27:48.122Z,33.55
2022-08-10T10:30:14.369Z,32.84
2022-08-10T10:32:40.655Z,33.80
2022-08-10T10:35:06.953Z,33.00
2022-08-10T10:38:01.003Z,32.87
2022-08-10T10:40:19.528Z,32.23
2022-08-10T10:42:46.942Z,32.49
2022-08-10T10:45:14.664Z,32.21
2022-08-10T10:47:46.258Z,32.62
2022-08-10T10:50:15.702Z,32.69
2022-08-10T10:52:42.017Z,32.68
2022-08-10T10:55:08.326Z,32.50
2022-08-10T10:57:59.107Z,32.27
2022-08-10T11:00:22.094Z,31.83
2022-08-10T11:02:48.573Z,31.97
2022-08-10T11:05:14.912Z,32.10
2022-08-10T11:07:41.257Z,32.15
2022-08-10T11:10:32.371Z,32.24
2022-08-10T11:13:06.884Z,32.16
2022-08-10T11:15:47.592Z,32.35
2022-08-10T11:18:14.105Z,32.34
2022-08-10T11:20:43.432Z,31.98
2022-08-10T11:23:09.726Z,31.99
2022-08-10T11:25:36.035Z,31.61
2022-08-10T11:28:02.347Z,31.84
2022-08-10T11:30:28.654Z,31.54
2022-08-10T11:32:54.964Z,31.45
2022-08-10T11:35:21.292Z,30.92
2022-08-10T11:38:32.387Z,30.96
2022-08-10T11:40:33.880Z,30.49
2022-08-10T11:43:00.175Z,29.56
2022-08-10T11:45:26.482Z,29.50
2022-08-10T11:47:52.782Z,29.75
2022-08-10T11:50:19.071Z,29.69
2022-08-10T11:52:45.377Z,30.32
2022-08-10T11:55:12.348Z,29.36
2022-08-10T11:57:53.058Z,29.07
2022-08-10T12:00:21.222Z,28.91
2022-08-10T12:02:47.588Z,29.85
2022-08-10T12:05:16.763Z,29.23
2022-08-10T12:08:54.668Z,29.09
2022-08-10T12:10:29.311Z,28.48
2022-08-10T12:12:55.618Z,28.55
2022-08-10T12:15:21.914Z,28.65
2022-08-10T12:17:48.486Z,28.84
2022-08-10T12:20:14.766Z,28.43
2022-08-10T12:22:41.413Z,28.18
2022-08-10T12:25:07.650Z,28.96
2022-08-10T12:27:33.984Z,28.20
2022-08-10T12:30:00.319Z,28.20
2022-08-10T12:32:26.638Z,27.92
2022-08-10T12:34:52.950Z,27.71
2022-08-10T12:37:19.253Z,27.93
2022-08-10T12:39:45.629Z,27.95
2022-08-10T12:42:11.964Z,27.83
2022-08-10T12:44:58.184Z,28.11
2022-08-10T12:47:24.477Z,28.46
2022-08-10T12:50:21.639Z,29.09
2022-08-10T12:52:37.152Z,29.42
2022-08-10T12:55:03.788Z,29.50
2022-08-10T12:57:30.224Z,29.68
2022-08-10T12:59:56.560Z,29.91
2022-08-10T13:02:22.887Z,29.59
2022-08-10T13:04:49.215Z,29.01
2022-08-10T13:08:03.934Z,29.49
2022-08-10T13:10:02.805Z,29.15
2022-08-10T13:12:37.099Z,29.22
2022-08-10T13:15:46.016Z,28.95
2022-08-10T13:17:53.254Z,28.91
2022-08-10T13:20:20.158Z,28.79
2022-08-10T13:22:46.476Z,28.64
2022-08-10T13:25:12.785Z,29.34
2022-08-10T13:28:00.692Z,29.04
2022-08-10T13:30:37.251Z,28.79
2022-08-10T13:33:04.403Z,29.09
2022-08-10T13:35:30.761Z,29.14
2022-08-10T13:37:57.913Z,29.15
2022-08-10T13:40:24.279Z,29.57
2022-08-10T13:42:51.428Z,28.87
2022-08-10T13:45:17.734Z,28.91
2022-08-10T13:47:49.429Z,29.84
2022-08-10T13:50:16.268Z,28.78
2022-08-10T13:52:45.634Z,28.86
2022-08-10T13:55:13.104Z,28.71
2022-08-10T13:57:43.990Z,28.04
2022-08-10T14:00:35.304Z,27.78
2022-08-10T14:03:00.214Z,27.50
2022-08-10T14:05:26.534Z,28.07
2022-08-10T14:08:00.510Z,27.44
2022-08-10T14:11:08.485Z,26.24
2022-08-10T14:13:13.741Z,26.40
2022-08-10T14:15:40.093Z,27.16
2022-08-10T14:18:06.384Z,26.58
2022-08-10T14:20:32.693Z,26.31
2022-08-10T14:22:59.154Z,27.29
2022-08-10T14:25:25.445Z,27.14
2022-08-10T14:28:02.894Z,27.10
2022-08-10T14:30:31.157Z,27.56
2022-08-10T14:32:57.500Z,26.88
2022-08-10T14:36:21.179Z,27.62
2022-08-10T14:38:09.995Z,27.64
2022-08-10T14:40:37.809Z,27.80
2022-08-10T14:43:04.109Z,27.54
2022-08-10T14:45:30.398Z,27.32
2022-08-10T14:48:00.942Z,27.47
2022-08-10T14:50:32.159Z,27.42
2022-08-10T14:52:59.136Z,27.78
2022-08-10T14:55:25.438Z,27.80
2022-08-10T14:58:19.422Z,28.13
2022-08-10T15:00:42.519Z,27.97
2022-08-10T15:03:10.861Z,28.13
2022-08-10T15:05:59.143Z,27.99
2022-08-10T15:08:25.860Z,28.70
2022-08-10T15:10:52.151Z,28.41
2022-08-10T15:13:33.566Z,28.56
2022-08-10T15:16:12.566Z,28.63
2022-08-10T15:18:40.040Z,28.90
2022-08-10T15:21:17.361Z,28.88
2022-08-10T15:24:05.557Z,28.70
2022-08-10T15:26:30.344Z,29.88
2022-08-10T15:29:22.669Z,30.24
2022-08-10T15:32:02.160Z,30.35
2022-08-10T15:34:46.983Z,28.62
2022-08-10T15:37:40.218Z,29.68
2022-08-10T15:40:26.699Z,30.64
2022-08-10T15:42:49.211Z,30.75
2022-08-10T15:45:15.791Z,30.05
2022-08-10T15:47:45.694Z,30.22
2022-08-10T15:50:13.093Z,30.43
2022-08-10T15:53:01.041Z,30.89
2022-08-10T15:55:43.614Z,29.85
2022-08-10T15:58:13.379Z,29.16
2022-08-10T16:00:39.701Z,28.92
2022-08-10T16:03:06.013Z,28.91
2022-08-10T16:06:00.854Z,27.38
2022-08-10T16:08:25.647Z,27.91
2022-08-10T16:10:53.620Z,28.05
2022-08-10T16:14:00.707Z,27.52
2022-08-10T16:16:07.302Z,27.28
2022-08-10T16:18:33.587Z,27.12
2022-08-10T16:20:59.897Z,26.55
2022-08-10T16:23:26.227Z,26.84
2022-08-10T16:25:59.304Z,27.13
2022-08-10T16:28:28.087Z,27.23
2022-08-10T16:30:54.404Z,28.00
2022-08-10T16:33:20.702Z,28.33
2022-08-10T16:35:49.884Z,28.57
2022-08-10T16:38:16.310Z,28.65
2022-08-10T16:40:42.631Z,28.80
2022-08-10T16:43:09.006Z,28.48
2022-08-10T16:45:35.294Z,28.85
2022-08-10T16:48:01.619Z,28.91
2022-08-10T16:50:27.905Z,29.06
2022-08-10T16:52:54.215Z,29.33
2022-08-10T16:55:27.100Z,29.31
2022-08-10T16:58:06.745Z,29.68
2022-08-10T17:00:33.045Z,29.80
2022-08-10T17:02:59.965Z,29.78
2022-08-10T17:06:01.419Z,29.82
2022-08-10T17:08:12.547Z,30.31
2022-08-10T17:10:38.871Z,30.54
2022-08-10T17:13:05.473Z,30.43
2022-08-10T17:15:31.774Z,30.69
2022-08-10T17:17:58.848Z,30.73
2022-08-10T17:20:30.514Z,30.90
2022-08-10T17:22:58.894Z,31.28
2022-08-10T17:25:25.201Z,30.02
2022-08-10T17:28:11.488Z,30.29
2022-08-10T17:30:57.886Z,30.56
2022-08-10T17:33:24.731Z,30.52
2022-08-10T17:35:51.025Z,30.89
2022-08-10T17:38:17.652Z,32.15
2022-08-10T17:40:45.160Z,33.06
2022-08-10T17:43:11.464Z,33.39
2022-08-10T17:45:46.998Z,33.73
2022-08-10T17:48:15.599Z,34.71
2022-08-10T17:50:41.964Z,35.68
2022-08-10T17:53:08.265Z,35.53
2022-08-10T17:55:34.752Z,35.88
2022-08-10T17:58:02.204Z,36.36
2022-08-10T18:00:28.764Z,37.07
2022-08-10T18:02:55.111Z,36.88
2022-08-10T18:05:21.429Z,37.47
2022-08-10T18:07:47.722Z,36.69
2022-08-10T18:10:14.002Z,36.49
2022-08-10T18:12:40.332Z,36.75
2022-08-10T18:15:06.653Z,37.03
2022-08-10T18:17:39.786Z,36.61
2022-08-10T18:20:06.212Z,35.78
2022-08-10T18:22:32.632Z,34.97
2022-08-10T18:24:58.976Z,36.22
2022-08-10T18:28:00.190Z,36.39
2022-08-10T18:30:11.534Z,36.93
2022-08-10T18:32:37.857Z,36.26
2022-08-10T18:35:04.238Z,36.71
2022-08-10T18:37:30.634Z,37.03
2022-08-10T18:39:57.025Z,35.03
2022-08-10T18:42:23.360Z,36.53
2022-08-10T18:44:50.217Z,37.72
2022-08-10T18:47:16.490Z,37.56
2022-08-10T18:49:42.788Z,38.08
2022-08-10T18:52:09.096Z,38.65
2022-08-10T18:54:44.455Z,38.90
2022-08-10T18:57:11.779Z,38.83
2022-08-10T18:59:38.113Z,39.43
2022-08-10T19:02:04.400Z,39.33
2022-08-10T19:04:30.705Z,39.66
2022-08-10T19:06:56.990Z,40.45
2022-08-10T19:09:47.791Z,39.91
2022-08-10T19:12:29.984Z,40.76
2022-08-10T19:14:56.019Z,40.80
2022-08-10T19:17:22.310Z,40.56
2022-08-10T19:19:48.670Z,41.32
2022-08-10T19:22:14.989Z,41.61
2022-08-10T19:24:41.288Z,42.19
2022-08-10T19:27:07.583Z,42.21
2022-08-10T19:30:08.714Z,41.78
2022-08-10T19:32:20.392Z,42.16
2022-08-10T19:34:46.670Z,41.99
2022-08-10T19:37:15.686Z,42.19
2022-08-10T19:39:51.067Z,42.65
2022-08-10T19:42:17.742Z,42.65
2022-08-10T19:44:44.159Z,42.97
2022-08-10T19:47:11.131Z,42.54
2022-08-10T19:49:40.045Z,42.78
2022-08-10T19:52:11.044Z,42.79
2022-08-10T19:54:38.046Z,42.79
2022-08-10T19:57:04.390Z,43.63
2022-08-10T20:00:16.088Z,43.00
2022-08-10T20:02:16.982Z,43.88
2022-08-10T20:04:43.289Z,44.05
2022-08-10T20:07:09.734Z,43.06
2022-08-10T20:09:36.027Z,42.98
2022-08-10T20:12:02.339Z,43.67
2022-08-10T20:14:28.644Z,43.47
2022-08-10T20:16:56.258Z,43.85
2022-08-10T20:19:22.689Z,43.71
2022-08-10T20:21:49.006Z,43.68
2022-08-10T20:24:15.308Z,43.78
2022-08-10T20:26:41.638Z,44.10
2022-08-10T20:29:07.956Z,44.34
2022-08-10T20:31:34.253Z,44.80
2022-08-10T20:34:01.824Z,45.08
2022-08-10T20:36:28.303Z,44.34
2022-08-10T20:38:54.630Z,44.56
2022-08-10T20:41:20.987Z,44.41
2022-08-10T20:43:47.313Z,44.76
2022-08-10T20:46:13.613Z,45.03
2022-08-10T20:48:40.080Z,45.36
2022-08-10T20:51:06.369Z,45.78
2022-08-10T20:53:32.660Z,46.03
2022-08-10T20:55:58.960Z,45.96
2022-08-10T20:58:25.354Z,46.08
2022-08-10T21:00:51.738Z,46.05
2022-08-10T21:03:22.136Z,46.15
2022-08-10T21:05:52.626Z,46.37
2022-08-10T21:08:19.185Z,46.37
2022-08-10T21:10:45.509Z,46.29
2022-08-10T21:13:11.882Z,46.78
2022-08-10T21:15:41.659Z,47.06
2022-08-10T21:18:08.482Z,47.29
2022-08-10T21:20:34.901Z,47.17
2022-08-10T21:23:05.441Z,47.55
2022-08-10T21:25:32.101Z,47.35
2022-08-10T21:27:59.446Z,47.50
2022-08-10T21:30:25.702Z,47.33
2022-08-10T21:32:53.872Z,47.54
2022-08-10T21:35:36.618Z,47.82
2022-08-10T21:38:04.231Z,48.32
2022-08-10T21:40:35.003Z,48.81
2022-08-10T21:43:20.805Z,48.71
2022-08-10T21:46:05.672Z,48.99
2022-08-10T21:48:57.833Z,48.83
2022-08-10T21:52:02.252Z,49.43
2022-08-10T21:54:48.849Z,48.84
2022-08-10T21:57:38.243Z,48.85
2022-08-10T22:00:29.570Z,49.24
2022-08-10T22:03:14.762Z,49.04
2022-08-10T22:06:02.748Z,48.64
2022-08-10T22:08:47.645Z,48.90
2022-08-10T22:11:37.211Z,48.86
2022-08-10T22:14:22.663Z,48.84
2022-08-10T22:17:59.596Z,49.05
2022-08-10T22:20:15.402Z,49.51
2022-08-10T22:23:18.869Z,49.31
2022-08-10T22:26:04.249Z,50.00
2022-08-10T22:28:49.494Z,50.13
2022-08-10T22:34:24.474Z,50.33
2022-08-10T22:37:09.278Z,50.11
2022-08-10T22:40:10.029Z,50.65
2022-08-10T22:43:10.462Z,50.27
2022-08-10T22:45:56.999Z,51.22
2022-08-10T22:48:41.815Z,51.16
2022-08-10T22:51:08.512Z,50.99
2022-08-10T22:53:53.372Z,51.23
2022-08-10T22:56:38.145Z,52.10
2022-08-10T22:59:04.460Z,51.65
2022-08-10T23:01:40.718Z,51.26
2022-08-10T23:04:07.266Z,51.00
2022-08-10T23:06:33.559Z,50.32
2022-08-10T23:08:59.874Z,49.80
2022-08-10T23:11:26.192Z,49.82
2022-08-10T23:13:52.485Z,50.03
2022-08-10T23:16:37.439Z,49.84
2022-08-10T23:19:09.632Z,50.25
2022-08-10T23:22:03.039Z,50.07
2022-08-10T23:24:22.221Z,50.35
2022-08-10T23:26:48.526Z,50.58
2022-08-10T23:29:17.243Z,51.00
2022-08-10T23:32:01.073Z,51.51
2022-08-10T23:34:29.835Z,51.97
2022-08-10T23:36:56.133Z,52.11
2022-08-10T23:39:27.529Z,52.06
2022-08-10T23:41:54.041Z,52.18
2022-08-10T23:44:20.930Z,52.49
2022-08-10T23:46:47.545Z,52.69
2022-08-10T23:49:13.962Z,52.95
2022-08-10T23:51:55.379Z,53.05
2022-08-10T23:54:22.926Z,53.35
2022-08-10T23:56:49.221Z,53.63
2022-08-10T23:59:15.545Z,53.80
